< Typhoon 201720 2017 Season Typhoon 201722 >
Typhoon 201721 (LAN)
General InformationTrack Information on Google MapsDetailed Wind InformationForecast History on Google MapsAccess Analytics MapList of All Images || NewsDisaster Info.WeblogTrackbackTyphoon FrontTwiphoonTyphoon Now!Typhoon ImaginationJMA Disaster Info. XMLResourceGoogle EarthGE AnimationAtom FeedGeoJSON
Detalied Best Track (Time Zone = UTC)
Year Month Day Hour Lat. Long. Pressure (hPa) Wind (kt) Class Image Chart
2017 10 15 06 8.8 137.3 1002 0 2 Image Chart
2017 10 15 12 9.3 136.8 1002 0 2 Image Chart
2017 10 15 18 9.7 136.2 1000 35 3 Image Chart
2017 10 16 00 10.2 135.6 1000 35 3 Image Chart
2017 10 16 06 10.6 135.1 996 40 3 Image Chart
2017 10 16 12 10.6 134.6 996 40 3 Image Chart
2017 10 16 18 10.3 133.9 992 45 3 Image Chart
2017 10 17 00 9.9 132.9 992 45 3 Image Chart
2017 10 17 06 9.9 132.4 985 50 4 Image Chart
2017 10 17 12 10.3 132.4 980 55 4 Image Chart
2017 10 17 18 11.0 132.6 970 65 5 Image Chart
2017 10 18 00 12.0 132.6 970 65 5 Image Chart
2017 10 18 06 13.0 132.1 970 65 5 Image Chart
2017 10 18 12 13.9 131.4 970 65 5 Image Chart
2017 10 18 18 14.7 130.8 970 65 5 Image Chart
2017 10 19 00 15.4 130.3 965 70 5 Image Chart
2017 10 19 06 16.3 130.1 965 70 5 Image Chart
2017 10 19 12 17.0 130.1 965 70 5 Image Chart
2017 10 19 18 17.9 130.0 965 70 5 Image Chart
2017 10 20 00 18.8 130.0 965 70 5 Image Chart
2017 10 20 06 19.6 130.0 950 80 5 Image Chart
2017 10 20 12 20.1 130.2 945 85 5 Image Chart
2017 10 20 18 20.7 130.7 935 90 5 Image Chart
2017 10 21 00 21.3 131.2 935 90 5 Image Chart
2017 10 21 03 21.7 131.6 935 90 5 Image Chart
2017 10 21 06 22.3 132.0 935 90 5 Image Chart
2017 10 21 09 23.2 132.3 935 90 5 Image Chart
2017 10 21 12 23.8 132.5 935 90 5 Image Chart
2017 10 21 15 24.5 132.9 925 95 5 Image Chart
2017 10 21 18 25.6 133.3 915 100 5 Image Chart
2017 10 21 21 26.7 133.7 915 100 5 Image Chart
2017 10 22 00 27.8 133.9 915 100 5 Image Chart
2017 10 22 03 28.9 134.2 915 100 5 Image Chart
2017 10 22 06 29.9 134.7 915 100 5 Image Chart
2017 10 22 09 30.9 135.4 925 95 5 Image Chart
2017 10 22 12 32.2 136.3 935 90 5 Image Chart
2017 10 22 15 33.5 137.3 945 85 5 Image Chart
2017 10 22 18 34.7 138.1 950 80 5 Image Chart
2017 10 22 21 36.1 140.1 965 65 5 Image Chart
2017 10 23 00 37.2 141.5 970 0 6 Image Chart
2017 10 23 06 41.0 145.9 970 0 6 Image Chart
2017 10 23 12 42.9 150.3 972 0 6 Image Chart
2017 10 23 18 44.4 155.4 978 0 6 Image Chart
Japan Meteorological Agency Best Track Data | Correction Date : 2018-03-30
< Typhoon 201720 2017 Season Typhoon 201722 >

Help